createdAt,value
2023-01-09T00:00:24.367Z,76916.53
2023-01-09T00:02:50.831Z,76918.53
2023-01-09T00:05:19.250Z,76908.59
2023-01-09T00:07:45.981Z,76894.69
2023-01-09T00:10:13.432Z,76904.63
2023-01-09T00:12:39.831Z,76890.72
2023-01-09T00:15:06.915Z,76886.72
2023-01-09T00:17:33.628Z,76904.63
2023-01-09T00:20:00.112Z,76896.66
2023-01-09T00:22:26.623Z,76892.69
2023-01-09T00:24:53.058Z,76882.75
2023-01-09T00:27:19.597Z,76882.75
2023-01-09T00:29:46.605Z,76872.81
2023-01-09T00:32:12.977Z,76892.69
2023-01-09T00:34:39.450Z,76884.75
2023-01-09T00:37:11.916Z,76892.69
2023-01-09T00:39:42.555Z,76912.56
2023-01-09T00:42:14.828Z,76914.56
2023-01-09T00:44:52.186Z,76910.59
2023-01-09T00:47:35.435Z,76914.56
2023-01-09T00:50:07.550Z,76934.44
2023-01-09T00:52:37.639Z,76918.53
2023-01-09T00:55:05.800Z,76894.69
2023-01-09T00:57:32.243Z,76900.66
2023-01-09T00:59:59.489Z,76918.53
2023-01-09T01:02:26.125Z,76936.41
2023-01-09T01:05:10.808Z,76948.34
2023-01-09T01:07:40.059Z,76956.28
2023-01-09T01:10:07.882Z,76976.16
2023-01-09T01:12:34.378Z,76976.16
2023-01-09T01:15:00.801Z,76968.22
2023-01-09T01:17:27.300Z,76972.19
2023-01-09T01:19:53.692Z,76968.22
2023-01-09T01:22:20.100Z,76972.19
2023-01-09T01:24:46.621Z,76976.16
2023-01-09T01:27:13.016Z,76968.22
2023-01-09T01:29:39.377Z,76964.25
2023-01-09T01:32:05.780Z,76968.22
2023-01-09T01:34:32.192Z,76956.28
2023-01-09T01:36:58.578Z,76954.31
2023-01-09T01:39:24.990Z,76956.28
2023-01-09T01:41:51.514Z,76966.22
2023-01-09T01:44:55.894Z,76960.25
2023-01-09T01:47:25.762Z,76956.28
2023-01-09T01:49:52.579Z,76972.19
2023-01-09T01:52:20.455Z,76976.16
2023-01-09T01:54:47.570Z,76982.13
2023-01-09T01:57:14.540Z,77000.00
2023-01-09T01:59:49.965Z,77002.00
2023-01-09T02:02:20.556Z,77002.00
2023-01-09T02:04:48.756Z,77002.00
2023-01-09T02:07:15.152Z,76982.13
2023-01-09T02:09:44.509Z,76978.16
2023-01-09T02:12:23.580Z,76980.13
2023-01-09T02:14:54.778Z,76988.09
2023-01-09T02:17:46.356Z,76984.13
2023-01-09T02:20:24.835Z,76982.13
2023-01-09T02:23:03.597Z,76972.19
2023-01-09T02:26:05.615Z,76974.19
2023-01-09T02:28:56.232Z,76968.22
2023-01-09T02:31:31.313Z,76964.25
2023-01-09T02:34:13.908Z,76956.28
2023-01-09T02:37:10.419Z,76956.28
2023-01-09T02:40:02.076Z,76952.31
2023-01-09T02:42:29.714Z,76952.31
2023-01-09T02:44:56.095Z,76948.34
2023-01-09T02:47:22.437Z,76956.28
2023-01-09T02:49:55.131Z,76946.34
2023-01-09T02:52:53.349Z,76940.41
2023-01-09T02:55:44.235Z,76928.47
2023-01-09T02:58:30.155Z,76936.41
2023-01-09T03:01:15.339Z,76926.47
2023-01-09T03:04:01.195Z,76920.53
2023-01-09T03:06:49.268Z,76910.59
2023-01-09T03:09:20.343Z,76906.59
2023-01-09T03:11:51.911Z,76888.72
2023-01-09T03:14:22.682Z,76878.78
2023-01-09T03:16:56.603Z,76896.66
2023-01-09T03:19:26.904Z,76886.72
2023-01-09T03:21:54.893Z,76882.75
2023-01-09T03:24:21.313Z,76876.78
2023-01-09T03:26:47.905Z,76854.94
2023-01-09T03:29:14.314Z,76847.00
2023-01-09T03:31:40.772Z,76848.97
2023-01-09T03:34:07.281Z,76845.00
2023-01-09T03:36:33.862Z,76833.06
2023-01-09T03:39:00.323Z,76831.09
2023-01-09T03:41:26.716Z,76829.09
2023-01-09T03:43:53.096Z,76827.13
2023-01-09T03:46:19.448Z,76815.19
2023-01-09T03:48:52.059Z,76801.28
2023-01-09T03:51:18.471Z,76797.31
2023-01-09T03:53:44.841Z,76799.28
2023-01-09T03:56:11.237Z,76781.41
2023-01-09T03:58:37.614Z,76781.41
2023-01-09T04:01:09.267Z,76767.50
2023-01-09T04:03:36.116Z,76753.59
2023-01-09T04:06:02.491Z,76737.69
2023-01-09T04:08:28.875Z,76739.66
2023-01-09T04:10:55.302Z,76745.63
2023-01-09T04:13:21.731Z,76749.59
2023-01-09T04:15:48.422Z,76757.56
2023-01-09T04:18:15.050Z,76741.66
2023-01-09T04:20:41.812Z,76751.59
2023-01-09T04:23:08.243Z,76743.66
2023-01-09T04:25:34.714Z,76739.66
2023-01-09T04:28:01.172Z,76711.84
2023-01-09T04:30:27.569Z,76697.94
2023-01-09T04:32:53.977Z,76703.91
2023-01-09T04:35:20.668Z,76695.94
2023-01-09T04:37:47.533Z,76715.81
2023-01-09T04:40:14.272Z,76709.88
2023-01-09T04:42:41.440Z,76703.91
2023-01-09T04:45:09.949Z,76695.94
2023-01-09T04:47:36.351Z,76701.91
2023-01-09T04:50:02.859Z,76656.22
2023-01-09T04:52:29.280Z,76658.19
2023-01-09T04:54:55.750Z,76686.00
2023-01-09T04:57:22.405Z,76674.09
2023-01-09T04:59:48.843Z,76648.25
2023-01-09T05:02:15.274Z,76664.16
2023-01-09T05:04:42.805Z,76664.16
2023-01-09T05:07:09.300Z,76662.16
2023-01-09T05:09:36.166Z,76662.16
2023-01-09T05:12:02.879Z,76664.16
2023-01-09T05:14:29.423Z,76660.19
2023-01-09T05:16:56.184Z,76656.22
2023-01-09T05:19:23.726Z,76654.22
2023-01-09T05:21:50.412Z,76646.28
2023-01-09T05:24:16.969Z,76638.31
2023-01-09T05:26:43.422Z,76626.41
2023-01-09T05:29:10.315Z,76634.34
2023-01-09T05:31:36.888Z,76618.44
2023-01-09T05:34:03.418Z,76626.41
2023-01-09T05:36:29.882Z,76626.41
2023-01-09T05:38:57.869Z,76630.38
2023-01-09T05:41:26.102Z,76626.41
2023-01-09T05:43:52.580Z,76614.47
2023-01-09T05:46:19.049Z,76644.28
2023-01-09T05:48:45.595Z,76636.34
2023-01-09T05:51:12.670Z,76638.31
2023-01-09T05:53:39.437Z,76640.31
2023-01-09T05:56:06.219Z,76654.22
2023-01-09T05:58:32.635Z,76644.28
2023-01-09T06:00:59.351Z,76650.25
2023-01-09T06:03:25.873Z,76642.28
2023-01-09T06:05:52.261Z,76646.28
2023-01-09T06:08:18.740Z,76640.31
2023-01-09T06:10:46.111Z,76612.50
2023-01-09T06:13:12.594Z,76630.38
2023-01-09T06:15:39.019Z,76642.28
2023-01-09T06:18:05.610Z,76642.28
2023-01-09T06:20:32.068Z,76626.41
2023-01-09T06:22:58.530Z,76618.44
2023-01-09T06:25:24.964Z,76618.44
2023-01-09T06:27:54.266Z,76596.59
2023-01-09T06:30:20.982Z,76584.66
2023-01-09T06:32:49.389Z,76590.63
2023-01-09T06:35:20.347Z,76602.56
2023-01-09T06:37:50.179Z,76618.44
2023-01-09T06:40:18.101Z,76598.56
2023-01-09T06:42:45.567Z,76602.56
2023-01-09T06:45:13.137Z,76602.56
2023-01-09T06:47:39.878Z,76614.47
2023-01-09T06:50:07.188Z,76604.53
2023-01-09T06:52:33.538Z,76602.56
2023-01-09T06:54:59.928Z,76612.50
2023-01-09T06:57:26.305Z,76598.56
2023-01-09T06:59:52.863Z,76604.53
2023-01-09T07:02:21.495Z,76586.66
2023-01-09T07:04:48.323Z,76584.66
2023-01-09T07:07:15.297Z,76574.72
2023-01-09T07:09:41.758Z,76568.78
2023-01-09T07:12:08.138Z,76564.78
2023-01-09T07:14:34.594Z,76564.78
2023-01-09T07:17:00.987Z,76564.78
2023-01-09T07:19:27.545Z,76558.84
2023-01-09T07:21:54.019Z,76564.78
2023-01-09T07:24:20.429Z,76554.84
2023-01-09T07:26:46.905Z,76550.88
2023-01-09T07:29:13.278Z,76554.84
2023-01-09T07:31:39.761Z,76566.78
2023-01-09T07:34:06.257Z,76556.84
2023-01-09T07:36:32.679Z,76576.72
2023-01-09T07:38:59.133Z,76562.81
2023-01-09T07:41:25.581Z,76560.81
2023-01-09T07:43:51.962Z,76562.81
2023-01-09T07:46:18.744Z,76576.72
2023-01-09T07:48:45.220Z,76578.72
2023-01-09T07:51:11.807Z,76584.66
2023-01-09T07:53:38.277Z,76584.66
2023-01-09T07:56:05.062Z,76562.81
2023-01-09T07:58:31.571Z,76566.78
2023-01-09T08:00:58.123Z,76572.75
2023-01-09T08:03:24.662Z,76560.81
2023-01-09T08:05:51.670Z,76582.69
2023-01-09T08:08:18.157Z,76558.84
2023-01-09T08:10:44.557Z,76556.84
2023-01-09T08:13:10.986Z,76546.91
2023-01-09T08:15:37.688Z,76558.84
2023-01-09T08:18:04.234Z,76558.84
2023-01-09T08:20:31.234Z,76578.72
2023-01-09T08:22:57.653Z,76580.69
2023-01-09T08:25:24.650Z,76564.78
2023-01-09T08:27:51.119Z,76554.84
2023-01-09T08:30:18.241Z,76560.81
2023-01-09T08:32:52.227Z,76574.72
2023-01-09T08:35:19.008Z,76560.81
2023-01-09T08:37:47.059Z,76560.81
2023-01-09T08:40:14.560Z,76535.00
2023-01-09T08:43:00.210Z,76554.84
2023-01-09T08:45:45.433Z,76550.88
2023-01-09T08:48:11.876Z,76556.84
2023-01-09T08:50:38.335Z,76538.97
2023-01-09T08:53:04.811Z,76517.09
2023-01-09T08:55:31.279Z,76540.94
2023-01-09T08:57:57.675Z,76527.03
2023-01-09T09:00:24.954Z,76527.03
2023-01-09T09:02:53.115Z,76542.94
2023-01-09T09:05:20.911Z,76533.00
2023-01-09T09:07:49.137Z,76536.97
2023-01-09T09:10:18.698Z,76513.13
2023-01-09T09:12:47.692Z,76489.28
2023-01-09T09:15:16.337Z,76511.16
2023-01-09T09:17:44.517Z,76511.16
2023-01-09T09:20:11.818Z,76499.22
2023-01-09T09:22:38.358Z,76513.13
2023-01-09T09:25:05.317Z,76499.22
2023-01-09T09:27:32.749Z,76459.47
2023-01-09T09:29:59.268Z,76493.25
2023-01-09T09:32:25.768Z,76495.25
2023-01-09T09:34:52.223Z,76473.38
2023-01-09T09:37:18.736Z,76463.44
2023-01-09T09:39:45.186Z,76457.50
2023-01-09T09:42:58.195Z,76443.59
2023-01-09T09:45:37.353Z,76455.50
2023-01-09T09:48:28.559Z,76443.59
2023-01-09T09:51:22.493Z,76411.78
2023-01-09T09:53:59.922Z,76427.69
2023-01-09T09:56:29.852Z,76399.88
2023-01-09T09:59:03.607Z,76391.91
2023-01-09T10:01:43.063Z,76385.97
2023-01-09T10:04:14.167Z,76391.91
2023-01-09T10:06:46.897Z,76383.97
2023-01-09T10:09:26.299Z,76366.09
2023-01-09T10:12:05.981Z,76348.19
2023-01-09T10:14:32.631Z,76364.09
2023-01-09T10:17:28.758Z,76366.09
2023-01-09T10:20:08.711Z,76374.03
2023-01-09T10:22:41.627Z,76358.13
2023-01-09T10:25:46.883Z,76328.34
2023-01-09T10:28:32.955Z,76334.28
2023-01-09T10:31:10.168Z,76324.34
2023-01-09T10:33:51.980Z,76326.34
2023-01-09T10:36:25.893Z,76322.38
2023-01-09T10:38:58.950Z,76308.47
2023-01-09T10:41:46.775Z,76280.66
2023-01-09T10:44:23.682Z,76306.47
2023-01-09T10:46:55.292Z,76276.66
2023-01-09T10:49:23.933Z,76276.66
2023-01-09T10:51:56.517Z,76314.41
2023-01-09T10:54:25.830Z,76298.53
2023-01-09T10:57:07.380Z,76284.63
2023-01-09T10:59:36.598Z,76282.63
2023-01-09T11:02:03.601Z,76294.56
2023-01-09T11:04:32.493Z,76270.72
2023-01-09T11:07:02.987Z,76294.56
2023-01-09T11:09:56.515Z,76292.56
2023-01-09T11:12:28.861Z,76288.59
2023-01-09T11:14:56.509Z,76290.56
2023-01-09T11:17:27.024Z,76318.41
2023-01-09T11:20:13.897Z,76308.47
2023-01-09T11:22:51.606Z,76356.16
2023-01-09T11:25:21.151Z,76376.03
2023-01-09T11:28:07.014Z,76364.09
2023-01-09T11:30:53.726Z,76364.09
2023-01-09T11:33:32.356Z,76352.19
2023-01-09T11:36:07.847Z,76348.19
2023-01-09T11:38:51.051Z,76338.25
2023-01-09T11:41:20.615Z,76344.22
2023-01-09T11:43:50.308Z,76334.28
2023-01-09T11:46:50.454Z,76328.34
2023-01-09T11:49:18.539Z,76310.44
2023-01-09T11:51:45.061Z,76314.41
2023-01-09T11:54:36.032Z,76312.44
2023-01-09T11:57:02.605Z,76336.28
2023-01-09T11:59:31.180Z,76338.25
2023-01-09T12:02:04.661Z,76358.13
2023-01-09T12:04:49.862Z,76356.16
2023-01-09T12:07:47.451Z,76370.06
2023-01-09T12:10:48.014Z,76354.16
2023-01-09T12:13:37.899Z,76350.19
2023-01-09T12:16:23.271Z,76344.22
2023-01-09T12:19:22.669Z,76336.28
2023-01-09T12:21:51.581Z,76372.03
2023-01-09T12:24:53.221Z,76358.13
2023-01-09T12:27:26.407Z,76358.13
2023-01-09T12:30:18.254Z,76344.22
2023-01-09T12:33:05.722Z,76364.09
2023-01-09T12:35:57.332Z,76376.03
2023-01-09T12:38:49.082Z,76358.13
2023-01-09T12:41:29.480Z,76358.13
2023-01-09T12:44:34.286Z,76356.16
2023-01-09T12:47:42.346Z,76328.34
2023-01-09T12:50:27.941Z,76318.41
2023-01-09T12:52:54.736Z,76324.34
2023-01-09T12:55:26.631Z,76332.31
2023-01-09T12:58:01.806Z,76306.47
2023-01-09T13:00:41.089Z,76320.38
2023-01-09T13:03:16.627Z,76316.41
2023-01-09T13:05:47.110Z,76310.44
2023-01-09T13:08:31.935Z,76320.38
2023-01-09T13:11:14.789Z,76314.41
2023-01-09T13:13:51.630Z,76294.56
2023-01-09T13:16:25.629Z,76336.28
2023-01-09T13:19:03.932Z,76342.25
2023-01-09T13:21:30.997Z,76316.41
2023-01-09T13:24:11.472Z,76300.50
2023-01-09T13:26:54.000Z,76302.50
2023-01-09T13:29:42.668Z,76308.47
2023-01-09T13:32:30.548Z,76310.44
2023-01-09T13:34:57.621Z,76296.53
2023-01-09T13:37:31.776Z,76296.53
2023-01-09T13:40:01.524Z,76294.56
2023-01-09T13:42:46.409Z,76268.72
2023-01-09T13:45:28.243Z,76266.72
2023-01-09T13:48:10.863Z,76280.66
2023-01-09T13:50:38.713Z,76312.44
2023-01-09T13:53:27.061Z,76340.25
2023-01-09T13:55:59.774Z,76352.19
2023-01-09T13:58:38.326Z,76376.03
2023-01-09T14:01:27.398Z,76391.91
2023-01-09T14:04:14.662Z,76429.66
2023-01-09T14:06:41.370Z,76435.63
2023-01-09T14:09:13.143Z,76443.59
2023-01-09T14:11:40.134Z,76459.47
2023-01-09T14:14:19.728Z,76443.59
2023-01-09T14:16:46.367Z,76453.50
2023-01-09T14:19:15.911Z,76447.56
2023-01-09T14:21:49.633Z,76437.63
2023-01-09T14:24:28.657Z,76439.59
2023-01-09T14:26:57.864Z,76451.53
2023-01-09T14:29:44.692Z,76457.50
2023-01-09T14:32:23.595Z,76455.50
2023-01-09T14:34:58.071Z,76451.53
2023-01-09T14:37:26.145Z,76441.59
2023-01-09T14:39:52.839Z,76465.44
2023-01-09T14:42:23.707Z,76457.50
2023-01-09T14:45:02.504Z,76481.34
2023-01-09T14:47:31.846Z,76471.41
2023-01-09T14:50:18.530Z,76475.38
2023-01-09T14:52:49.826Z,76459.47
2023-01-09T14:55:24.442Z,76467.44
2023-01-09T14:57:54.781Z,76455.50
2023-01-09T15:00:22.696Z,76463.44
2023-01-09T15:02:51.436Z,76463.44
2023-01-09T15:05:22.359Z,76479.34
2023-01-09T15:08:01.883Z,76471.41
2023-01-09T15:10:34.800Z,76489.28
2023-01-09T15:13:05.573Z,76489.28
2023-01-09T15:15:32.086Z,76475.38
2023-01-09T15:18:01.857Z,76485.31
2023-01-09T15:20:31.011Z,76531.00
2023-01-09T15:23:00.801Z,76548.91
2023-01-09T15:25:38.802Z,76562.81
2023-01-09T15:28:32.676Z,76584.66
2023-01-09T15:31:06.263Z,76594.59
2023-01-09T15:33:34.397Z,76606.53
2023-01-09T15:36:05.268Z,76590.63
2023-01-09T15:38:33.027Z,76576.72
2023-01-09T15:41:09.190Z,76564.78
2023-01-09T15:43:41.278Z,76592.63
2023-01-09T15:46:07.991Z,76598.56
2023-01-09T15:48:35.676Z,76616.47
2023-01-09T15:51:17.504Z,76614.47
2023-01-09T15:53:50.200Z,76622.44
2023-01-09T15:56:33.306Z,76618.44
2023-01-09T15:59:00.794Z,76618.44
2023-01-09T16:01:31.179Z,76614.47
2023-01-09T16:04:03.428Z,76628.38
2023-01-09T16:06:32.682Z,76624.41
2023-01-09T16:09:00.469Z,76614.47
2023-01-09T16:11:30.206Z,76634.34
2023-01-09T16:14:13.680Z,76640.31
2023-01-09T16:16:41.201Z,76668.13
2023-01-09T16:19:30.684Z,76658.19
2023-01-09T16:21:59.045Z,76680.06
2023-01-09T16:24:41.033Z,76664.16
2023-01-09T16:27:33.282Z,76674.09
2023-01-09T16:30:01.622Z,76688.00
2023-01-09T16:32:31.051Z,76680.06
2023-01-09T16:35:07.690Z,76666.16
2023-01-09T16:37:44.725Z,76662.16
2023-01-09T16:40:22.059Z,76664.16
2023-01-09T16:43:03.369Z,76701.91
2023-01-09T16:45:35.198Z,76705.88
2023-01-09T16:48:19.690Z,76701.91
2023-01-09T16:50:47.102Z,76737.69
2023-01-09T16:53:23.820Z,76741.66
2023-01-09T16:55:52.426Z,76767.50
2023-01-09T16:58:24.593Z,76781.41
2023-01-09T17:00:51.267Z,76785.38
2023-01-09T17:03:17.992Z,76813.19
2023-01-09T17:05:44.639Z,76785.38
2023-01-09T17:08:29.093Z,76815.19
2023-01-09T17:10:56.984Z,76821.16
2023-01-09T17:13:24.568Z,76848.97
2023-01-09T17:15:52.857Z,76870.84
2023-01-09T17:18:21.867Z,76872.81
2023-01-09T17:20:54.286Z,76888.72
2023-01-09T17:23:22.372Z,76898.66
2023-01-09T17:26:12.829Z,76920.53
2023-01-09T17:28:46.500Z,76920.53
2023-01-09T17:31:13.167Z,76930.47
2023-01-09T17:33:40.823Z,76946.34
2023-01-09T17:36:31.875Z,76948.34
2023-01-09T17:38:59.329Z,76948.34
2023-01-09T17:41:30.741Z,76972.19
2023-01-09T17:43:58.663Z,76972.19
2023-01-09T17:46:34.425Z,76980.13
2023-01-09T17:49:02.669Z,76990.06
2023-01-09T17:51:29.422Z,76998.03
2023-01-09T17:53:56.417Z,76996.03
2023-01-09T17:56:29.297Z,77007.97
2023-01-09T17:58:56.284Z,76990.06
2023-01-09T18:01:22.799Z,77017.91
2023-01-09T18:03:50.462Z,76996.03
2023-01-09T18:06:19.779Z,77004.00
2023-01-09T18:08:46.783Z,77029.81
2023-01-09T18:11:19.300Z,77053.69
2023-01-09T18:13:46.696Z,77017.91
2023-01-09T18:16:18.422Z,77029.81
2023-01-09T18:18:45.519Z,77049.69
2023-01-09T18:21:16.209Z,77057.66
2023-01-09T18:23:42.718Z,77075.53
2023-01-09T18:26:10.656Z,77063.63
2023-01-09T18:28:38.174Z,77071.56
2023-01-09T18:31:05.520Z,77069.56
2023-01-09T18:33:32.224Z,77069.56
2023-01-09T18:36:08.671Z,77075.53
2023-01-09T18:38:35.697Z,77083.50
2023-01-09T18:41:03.711Z,77083.50
2023-01-09T18:43:31.042Z,77081.50
2023-01-09T18:45:57.454Z,77061.63
2023-01-09T18:48:23.994Z,77053.69
2023-01-09T18:51:05.236Z,77061.63
2023-01-09T18:53:32.037Z,77049.69
2023-01-09T18:56:02.875Z,77071.56
2023-01-09T18:58:29.550Z,77011.94
2023-01-09T19:00:56.110Z,76996.03
2023-01-09T19:03:22.555Z,76998.03
2023-01-09T19:05:49.003Z,77005.97
2023-01-09T19:08:15.380Z,76994.06
2023-01-09T19:10:41.830Z,77009.94
2023-01-09T19:13:08.306Z,77019.88
2023-01-09T19:15:34.767Z,77029.81
2023-01-09T19:18:01.372Z,77029.81
2023-01-09T19:20:28.123Z,77041.75
2023-01-09T19:22:56.816Z,77063.63
2023-01-09T19:25:23.339Z,77041.75
2023-01-09T19:27:50.056Z,77073.56
2023-01-09T19:30:25.479Z,77111.31
2023-01-09T19:32:52.007Z,77115.28
2023-01-09T19:35:18.547Z,77131.19
2023-01-09T19:37:44.945Z,77149.06
2023-01-09T19:40:11.903Z,77157.03
2023-01-09T19:42:38.321Z,77139.13
2023-01-09T19:45:05.333Z,77127.22
2023-01-09T19:47:38.013Z,77166.97
2023-01-09T19:50:05.772Z,77147.09
2023-01-09T19:52:32.202Z,77174.91
2023-01-09T19:54:58.621Z,77186.84
2023-01-09T19:57:25.039Z,77174.91
2023-01-09T19:59:52.638Z,77184.84
2023-01-09T20:04:45.573Z,77135.16
2023-01-09T20:07:11.986Z,77159.00
2023-01-09T20:09:38.425Z,77151.06
2023-01-09T20:12:05.334Z,77151.06
2023-01-09T20:14:31.773Z,77135.16
2023-01-09T20:17:00.937Z,77127.22
2023-01-09T20:19:28.501Z,77107.34
2023-01-09T20:21:54.891Z,77091.44
2023-01-09T20:24:21.255Z,77081.50
2023-01-09T20:26:47.706Z,77071.56
2023-01-09T20:29:14.152Z,77079.50
2023-01-09T20:31:40.685Z,77091.44
2023-01-09T20:34:07.187Z,77101.38
2023-01-09T20:36:34.815Z,77115.28
2023-01-09T20:39:04.692Z,77089.44
2023-01-09T20:41:31.491Z,77083.50
2023-01-09T20:44:00.399Z,77081.50
2023-01-09T20:46:29.488Z,77085.47
2023-01-09T20:49:01.757Z,77075.53
2023-01-09T20:51:28.111Z,77091.44
2023-01-09T20:53:58.395Z,77083.50
2023-01-09T20:56:26.680Z,77067.59
2023-01-09T20:58:53.490Z,77059.63
2023-01-09T21:01:21.783Z,77059.63
2023-01-09T21:03:49.324Z,77061.63
2023-01-09T21:06:17.399Z,77061.63
2023-01-09T21:08:45.463Z,77073.56
2023-01-09T21:11:12.078Z,77071.56
2023-01-09T21:13:39.318Z,77079.50
2023-01-09T21:16:10.151Z,77101.38
2023-01-09T21:18:37.249Z,77101.38
2023-01-09T21:21:09.903Z,77125.22
2023-01-09T21:23:36.751Z,77121.25
2023-01-09T21:26:09.679Z,77137.16
2023-01-09T21:28:55.303Z,77133.19
2023-01-09T21:31:25.986Z,77182.88
2023-01-09T21:33:54.422Z,77168.94
2023-01-09T21:36:21.517Z,77174.91
2023-01-09T21:38:52.486Z,77186.84
2023-01-09T21:41:39.784Z,77194.78
2023-01-09T21:44:25.160Z,77176.91
2023-01-09T21:46:51.687Z,77212.69
2023-01-09T21:49:19.572Z,77214.66
2023-01-09T21:51:46.311Z,77234.53
2023-01-09T21:54:12.744Z,77236.53
2023-01-09T21:56:39.222Z,77262.38
2023-01-09T21:59:05.704Z,77242.50
2023-01-09T22:01:32.196Z,77244.47
2023-01-09T22:03:59.165Z,77256.41
2023-01-09T22:06:25.980Z,77266.34
2023-01-09T22:08:52.588Z,77264.34
2023-01-09T22:11:18.993Z,77270.31
2023-01-09T22:13:49.805Z,77228.56
2023-01-09T22:16:17.286Z,77230.56
2023-01-09T22:18:43.765Z,77248.44
2023-01-09T22:21:10.260Z,77254.41
2023-01-09T22:23:36.725Z,77270.31
2023-01-09T22:26:14.606Z,77270.31
2023-01-09T22:28:42.018Z,77278.25
2023-01-09T22:31:09.887Z,77294.16
2023-01-09T22:33:40.624Z,77318.03
2023-01-09T22:36:10.175Z,77312.06
2023-01-09T22:38:37.227Z,77274.28
2023-01-09T22:41:04.387Z,77278.25
2023-01-09T22:43:31.739Z,77280.25
2023-01-09T22:46:06.389Z,77286.22
2023-01-09T22:48:34.556Z,77288.22
2023-01-09T22:51:02.331Z,77312.06
2023-01-09T22:53:30.326Z,77308.09
2023-01-09T22:56:00.753Z,77278.25
2023-01-09T22:58:30.414Z,77278.25
2023-01-09T23:00:57.135Z,77276.28
2023-01-09T23:03:24.407Z,77256.41
2023-01-09T23:06:07.184Z,77222.63
2023-01-09T23:08:35.146Z,77238.50
2023-01-09T23:11:03.345Z,77240.50
2023-01-09T23:13:29.848Z,77242.50
2023-01-09T23:15:56.322Z,77234.53
2023-01-09T23:18:23.175Z,77230.56
2023-01-09T23:20:54.051Z,77230.56
2023-01-09T23:23:21.941Z,77218.63
2023-01-09T23:25:49.920Z,77210.69
2023-01-09T23:28:16.504Z,77206.72
2023-01-09T23:30:43.204Z,77194.78
2023-01-09T23:33:09.621Z,77194.78
2023-01-09T23:35:36.053Z,77184.84
2023-01-09T23:38:02.476Z,77166.97
2023-01-09T23:40:29.120Z,77178.88
2023-01-09T23:43:10.815Z,77182.88
2023-01-09T23:45:39.280Z,77176.91
2023-01-09T23:48:07.086Z,77170.94
2023-01-09T23:50:33.944Z,77186.84
2023-01-09T23:53:00.619Z,77155.03
2023-01-09T23:55:27.774Z,77145.09
2023-01-09T23:57:54.660Z,77170.94
